sensor_id;sensor_type;location;lat;lon;timestamp;P1;durP1;ratioP1;P2;durP2;ratioP2
305;SDS011;137;48.578;9.180;2022-07-23T00:00:42;6.90;;;6.40;;
305;SDS011;137;48.578;9.180;2022-07-23T00:03:09;7.17;;;6.50;;
305;SDS011;137;48.578;9.180;2022-07-23T00:05:36;7.30;;;6.57;;
305;SDS011;137;48.578;9.180;2022-07-23T00:08:03;6.73;;;6.17;;
305;SDS011;137;48.578;9.180;2022-07-23T00:10:32;8.07;;;6.77;;
305;SDS011;137;48.578;9.180;2022-07-23T00:12:59;7.50;;;6.80;;
305;SDS011;137;48.578;9.180;2022-07-23T00:15:25;10.00;;;6.23;;
305;SDS011;137;48.578;9.180;2022-07-23T00:17:52;7.00;;;6.30;;
305;SDS011;137;48.578;9.180;2022-07-23T00:20:19;5.97;;;5.47;;
305;SDS011;137;48.578;9.180;2022-07-23T00:22:46;6.83;;;6.27;;
305;SDS011;137;48.578;9.180;2022-07-23T00:25:16;5.90;;;5.40;;
305;SDS011;137;48.578;9.180;2022-07-23T00:27:44;6.50;;;6.00;;
305;SDS011;137;48.578;9.180;2022-07-23T00:30:12;7.70;;;5.80;;
305;SDS011;137;48.578;9.180;2022-07-23T00:32:46;6.40;;;5.90;;
305;SDS011;137;48.578;9.180;2022-07-23T00:35:13;6.37;;;5.77;;
305;SDS011;137;48.578;9.180;2022-07-23T00:37:41;6.73;;;5.67;;
305;SDS011;137;48.578;9.180;2022-07-23T00:40:08;5.63;;;5.13;;
305;SDS011;137;48.578;9.180;2022-07-23T00:42:36;5.93;;;5.50;;
305;SDS011;137;48.578;9.180;2022-07-23T00:45:05;4.97;;;4.67;;
305;SDS011;137;48.578;9.180;2022-07-23T00:47:33;4.83;;;4.47;;
305;SDS011;137;48.578;9.180;2022-07-23T00:50:01;5.17;;;4.67;;
305;SDS011;137;48.578;9.180;2022-07-23T00:52:29;4.80;;;4.40;;
305;SDS011;137;48.578;9.180;2022-07-23T00:54:57;5.23;;;4.10;;
305;SDS011;137;48.578;9.180;2022-07-23T00:57:24;4.50;;;4.10;;
305;SDS011;137;48.578;9.180;2022-07-23T00:59:51;3.80;;;3.50;;
305;SDS011;137;48.578;9.180;2022-07-23T01:02:19;4.70;;;4.40;;
305;SDS011;137;48.578;9.180;2022-07-23T01:04:46;4.30;;;3.90;;
305;SDS011;137;48.578;9.180;2022-07-23T01:07:13;4.37;;;3.97;;
305;SDS011;137;48.578;9.180;2022-07-23T01:09:40;4.67;;;4.27;;
305;SDS011;137;48.578;9.180;2022-07-23T01:12:09;4.60;;;4.20;;
305;SDS011;137;48.578;9.180;2022-07-23T01:14:36;4.70;;;4.30;;
305;SDS011;137;48.578;9.180;2022-07-23T01:17:02;5.17;;;4.77;;
305;SDS011;137;48.578;9.180;2022-07-23T01:19:31;5.47;;;5.03;;
305;SDS011;137;48.578;9.180;2022-07-23T01:21:58;4.27;;;3.97;;
305;SDS011;137;48.578;9.180;2022-07-23T01:24:29;5.40;;;5.00;;
305;SDS011;137;48.578;9.180;2022-07-23T01:26:56;5.50;;;4.93;;
305;SDS011;137;48.578;9.180;2022-07-23T01:29:23;5.10;;;4.80;;
305;SDS011;137;48.578;9.180;2022-07-23T01:31:49;5.30;;;4.80;;
305;SDS011;137;48.578;9.180;2022-07-23T01:34:16;4.60;;;4.20;;
305;SDS011;137;48.578;9.180;2022-07-23T01:36:43;5.90;;;5.37;;
305;SDS011;137;48.578;9.180;2022-07-23T01:39:10;6.03;;;5.53;;
305;SDS011;137;48.578;9.180;2022-07-23T01:41:39;5.13;;;4.73;;
305;SDS011;137;48.578;9.180;2022-07-23T01:44:06;5.00;;;4.60;;
305;SDS011;137;48.578;9.180;2022-07-23T01:46:33;8.40;;;5.20;;
305;SDS011;137;48.578;9.180;2022-07-23T01:49:00;4.70;;;4.40;;
305;SDS011;137;48.578;9.180;2022-07-23T01:51:27;5.00;;;4.60;;
305;SDS011;137;48.578;9.180;2022-07-23T01:53:54;4.90;;;4.50;;
305;SDS011;137;48.578;9.180;2022-07-23T01:56:20;6.13;;;5.27;;
305;SDS011;137;48.578;9.180;2022-07-23T01:58:49;5.57;;;5.17;;
305;SDS011;137;48.578;9.180;2022-07-23T02:01:15;5.27;;;4.77;;
305;SDS011;137;48.578;9.180;2022-07-23T02:03:43;5.63;;;5.13;;
305;SDS011;137;48.578;9.180;2022-07-23T02:06:10;5.67;;;5.20;;
305;SDS011;137;48.578;9.180;2022-07-23T02:08:37;5.77;;;5.17;;
305;SDS011;137;48.578;9.180;2022-07-23T02:11:03;4.90;;;4.60;;
305;SDS011;137;48.578;9.180;2022-07-23T02:13:30;4.77;;;4.17;;
305;SDS011;137;48.578;9.180;2022-07-23T02:15:58;4.60;;;4.20;;
305;SDS011;137;48.578;9.180;2022-07-23T02:18:25;3.90;;;3.60;;
305;SDS011;137;48.578;9.180;2022-07-23T02:20:52;4.30;;;4.00;;
305;SDS011;137;48.578;9.180;2022-07-23T02:23:19;4.40;;;3.97;;
305;SDS011;137;48.578;9.180;2022-07-23T02:25:46;4.00;;;3.60;;
305;SDS011;137;48.578;9.180;2022-07-23T02:28:13;5.13;;;3.70;;
305;SDS011;137;48.578;9.180;2022-07-23T02:30:40;4.20;;;3.90;;
305;SDS011;137;48.578;9.180;2022-07-23T02:33:08;4.03;;;3.63;;
305;SDS011;137;48.578;9.180;2022-07-23T02:35:35;3.97;;;3.67;;
305;SDS011;137;48.578;9.180;2022-07-23T02:38:02;3.80;;;3.50;;
305;SDS011;137;48.578;9.180;2022-07-23T02:40:28;4.83;;;4.43;;
305;SDS011;137;48.578;9.180;2022-07-23T02:42:55;4.00;;;3.60;;
305;SDS011;137;48.578;9.180;2022-07-23T02:45:22;5.10;;;4.70;;
305;SDS011;137;48.578;9.180;2022-07-23T02:47:49;3.90;;;3.60;;
305;SDS011;137;48.578;9.180;2022-07-23T02:50:17;4.20;;;3.90;;
305;SDS011;137;48.578;9.180;2022-07-23T02:52:44;4.20;;;3.90;;
305;SDS011;137;48.578;9.180;2022-07-23T02:55:11;4.23;;;3.83;;
305;SDS011;137;48.578;9.180;2022-07-23T02:57:38;4.57;;;4.17;;
305;SDS011;137;48.578;9.180;2022-07-23T03:00:05;5.20;;;4.70;;
305;SDS011;137;48.578;9.180;2022-07-23T03:02:33;4.07;;;3.70;;
305;SDS011;137;48.578;9.180;2022-07-23T03:05:00;4.90;;;4.50;;
305;SDS011;137;48.578;9.180;2022-07-23T03:07:28;4.53;;;4.13;;
305;SDS011;137;48.578;9.180;2022-07-23T03:09:55;5.60;;;4.53;;
305;SDS011;137;48.578;9.180;2022-07-23T03:12:22;6.40;;;4.30;;
305;SDS011;137;48.578;9.180;2022-07-23T03:14:49;5.27;;;4.87;;
305;SDS011;137;48.578;9.180;2022-07-23T03:17:16;4.10;;;3.80;;
305;SDS011;137;48.578;9.180;2022-07-23T03:19:43;5.03;;;4.63;;
305;SDS011;137;48.578;9.180;2022-07-23T03:22:10;5.40;;;4.87;;
305;SDS011;137;48.578;9.180;2022-07-23T03:24:38;5.20;;;4.80;;
305;SDS011;137;48.578;9.180;2022-07-23T03:27:19;5.10;;;4.60;;
305;SDS011;137;48.578;9.180;2022-07-23T03:29:47;5.20;;;4.70;;
305;SDS011;137;48.578;9.180;2022-07-23T03:32:14;4.77;;;4.37;;
305;SDS011;137;48.578;9.180;2022-07-23T03:34:40;5.83;;;5.30;;
305;SDS011;137;48.578;9.180;2022-07-23T03:37:07;5.40;;;4.90;;
305;SDS011;137;48.578;9.180;2022-07-23T03:39:34;5.60;;;5.10;;
305;SDS011;137;48.578;9.180;2022-07-23T03:42:02;5.73;;;5.23;;
305;SDS011;137;48.578;9.180;2022-07-23T03:44:30;7.40;;;5.10;;
305;SDS011;137;48.578;9.180;2022-07-23T03:46:57;5.23;;;4.83;;
305;SDS011;137;48.578;9.180;2022-07-23T03:49:24;5.13;;;4.73;;
305;SDS011;137;48.578;9.180;2022-07-23T03:51:51;5.33;;;4.93;;
305;SDS011;137;48.578;9.180;2022-07-23T03:54:18;6.93;;;5.40;;
305;SDS011;137;48.578;9.180;2022-07-23T03:56:45;5.57;;;5.17;;
305;SDS011;137;48.578;9.180;2022-07-23T03:59:13;5.13;;;4.73;;
305;SDS011;137;48.578;9.180;2022-07-23T04:01:40;6.13;;;5.07;;
305;SDS011;137;48.578;9.180;2022-07-23T04:04:07;5.27;;;4.87;;
305;SDS011;137;48.578;9.180;2022-07-23T04:06:34;4.97;;;4.57;;
305;SDS011;137;48.578;9.180;2022-07-23T04:09:01;5.27;;;4.77;;
305;SDS011;137;48.578;9.180;2022-07-23T04:11:28;5.23;;;4.50;;
305;SDS011;137;48.578;9.180;2022-07-23T04:13:55;5.90;;;5.37;;
305;SDS011;137;48.578;9.180;2022-07-23T04:16:23;5.60;;;5.13;;
305;SDS011;137;48.578;9.180;2022-07-23T04:18:50;5.47;;;5.00;;
305;SDS011;137;48.578;9.180;2022-07-23T04:21:17;5.07;;;4.57;;
305;SDS011;137;48.578;9.180;2022-07-23T04:23:44;5.10;;;4.70;;
305;SDS011;137;48.578;9.180;2022-07-23T04:26:10;5.10;;;4.70;;
305;SDS011;137;48.578;9.180;2022-07-23T04:28:37;5.33;;;4.93;;
305;SDS011;137;48.578;9.180;2022-07-23T04:31:04;5.03;;;4.60;;
305;SDS011;137;48.578;9.180;2022-07-23T04:33:32;5.40;;;5.00;;
305;SDS011;137;48.578;9.180;2022-07-23T04:35:59;4.87;;;4.43;;
305;SDS011;137;48.578;9.180;2022-07-23T04:38:26;4.90;;;4.57;;
305;SDS011;137;48.578;9.180;2022-07-23T04:40:53;4.83;;;4.47;;
305;SDS011;137;48.578;9.180;2022-07-23T04:43:19;6.43;;;5.83;;
305;SDS011;137;48.578;9.180;2022-07-23T04:45:46;6.30;;;5.70;;
305;SDS011;137;48.578;9.180;2022-07-23T04:48:13;5.80;;;5.30;;
305;SDS011;137;48.578;9.180;2022-07-23T04:50:41;5.40;;;4.90;;
305;SDS011;137;48.578;9.180;2022-07-23T04:53:08;5.23;;;4.77;;
305;SDS011;137;48.578;9.180;2022-07-23T04:55:35;5.60;;;5.13;;
305;SDS011;137;48.578;9.180;2022-07-23T04:58:02;6.23;;;5.73;;
305;SDS011;137;48.578;9.180;2022-07-23T05:00:29;5.13;;;4.73;;
305;SDS011;137;48.578;9.180;2022-07-23T05:02:56;6.00;;;5.50;;
305;SDS011;137;48.578;9.180;2022-07-23T05:05:22;5.73;;;5.23;;
305;SDS011;137;48.578;9.180;2022-07-23T05:07:51;6.00;;;5.50;;
305;SDS011;137;48.578;9.180;2022-07-23T05:10:18;5.73;;;5.13;;
305;SDS011;137;48.578;9.180;2022-07-23T05:12:44;6.20;;;5.70;;
305;SDS011;137;48.578;9.180;2022-07-23T05:15:11;5.07;;;4.40;;
305;SDS011;137;48.578;9.180;2022-07-23T05:17:38;5.10;;;4.70;;
305;SDS011;137;48.578;9.180;2022-07-23T05:20:05;6.17;;;5.20;;
305;SDS011;137;48.578;9.180;2022-07-23T05:22:33;5.83;;;5.30;;
305;SDS011;137;48.578;9.180;2022-07-23T05:25:01;5.30;;;4.80;;
305;SDS011;137;48.578;9.180;2022-07-23T05:27:29;6.67;;;5.13;;
305;SDS011;137;48.578;9.180;2022-07-23T05:29:56;6.10;;;5.60;;
305;SDS011;137;48.578;9.180;2022-07-23T05:32:23;5.20;;;4.80;;
305;SDS011;137;48.578;9.180;2022-07-23T05:34:50;7.20;;;6.50;;
305;SDS011;137;48.578;9.180;2022-07-23T05:37:17;6.93;;;5.33;;
305;SDS011;137;48.578;9.180;2022-07-23T05:39:44;5.20;;;4.70;;
305;SDS011;137;48.578;9.180;2022-07-23T05:42:12;5.27;;;4.87;;
305;SDS011;137;48.578;9.180;2022-07-23T05:44:39;5.97;;;5.40;;
305;SDS011;137;48.578;9.180;2022-07-23T05:47:06;5.53;;;5.13;;
305;SDS011;137;48.578;9.180;2022-07-23T05:49:32;5.77;;;5.17;;
305;SDS011;137;48.578;9.180;2022-07-23T05:52:02;6.80;;;5.60;;
305;SDS011;137;48.578;9.180;2022-07-23T05:54:30;6.33;;;5.73;;
305;SDS011;137;48.578;9.180;2022-07-23T05:56:57;6.23;;;5.60;;
305;SDS011;137;48.578;9.180;2022-07-23T05:59:25;5.70;;;5.20;;
305;SDS011;137;48.578;9.180;2022-07-23T06:01:52;6.70;;;6.10;;
305;SDS011;137;48.578;9.180;2022-07-23T06:04:19;7.40;;;6.70;;
305;SDS011;137;48.578;9.180;2022-07-23T06:06:46;6.53;;;5.93;;
305;SDS011;137;48.578;9.180;2022-07-23T06:09:13;9.53;;;5.73;;
305;SDS011;137;48.578;9.180;2022-07-23T06:11:40;6.90;;;6.30;;
305;SDS011;137;48.578;9.180;2022-07-23T06:14:07;6.40;;;5.90;;
305;SDS011;137;48.578;9.180;2022-07-23T06:16:35;6.40;;;5.90;;
305;SDS011;137;48.578;9.180;2022-07-23T06:19:02;6.73;;;6.20;;
305;SDS011;137;48.578;9.180;2022-07-23T06:21:29;6.00;;;5.47;;
305;SDS011;137;48.578;9.180;2022-07-23T06:23:55;6.43;;;5.87;;
305;SDS011;137;48.578;9.180;2022-07-23T06:26:22;6.23;;;5.73;;
305;SDS011;137;48.578;9.180;2022-07-23T06:28:49;5.67;;;5.27;;
305;SDS011;137;48.578;9.180;2022-07-23T06:31:16;6.57;;;5.97;;
305;SDS011;137;48.578;9.180;2022-07-23T06:33:44;6.50;;;6.00;;
305;SDS011;137;48.578;9.180;2022-07-23T06:36:11;6.67;;;6.10;;
305;SDS011;137;48.578;9.180;2022-07-23T06:38:38;6.33;;;5.83;;
305;SDS011;137;48.578;9.180;2022-07-23T06:41:04;6.40;;;5.90;;
305;SDS011;137;48.578;9.180;2022-07-23T06:43:31;6.43;;;5.93;;
305;SDS011;137;48.578;9.180;2022-07-23T06:45:58;6.33;;;5.90;;
305;SDS011;137;48.578;9.180;2022-07-23T06:48:25;6.10;;;5.60;;
305;SDS011;137;48.578;9.180;2022-07-23T06:50:54;7.90;;;5.57;;
305;SDS011;137;48.578;9.180;2022-07-23T06:53:21;5.77;;;5.37;;
305;SDS011;137;48.578;9.180;2022-07-23T06:55:48;6.43;;;5.93;;
305;SDS011;137;48.578;9.180;2022-07-23T06:58:15;5.97;;;5.10;;
305;SDS011;137;48.578;9.180;2022-07-23T07:00:43;6.90;;;6.40;;
305;SDS011;137;48.578;9.180;2022-07-23T07:03:10;6.47;;;5.97;;
305;SDS011;137;48.578;9.180;2022-07-23T07:05:39;6.87;;;5.50;;
305;SDS011;137;48.578;9.180;2022-07-23T07:08:08;6.70;;;6.20;;
305;SDS011;137;48.578;9.180;2022-07-23T07:10:35;6.27;;;5.77;;
305;SDS011;137;48.578;9.180;2022-07-23T07:13:02;6.00;;;5.40;;
305;SDS011;137;48.578;9.180;2022-07-23T07:15:29;6.07;;;5.47;;
305;SDS011;137;48.578;9.180;2022-07-23T07:17:56;5.30;;;4.90;;
305;SDS011;137;48.578;9.180;2022-07-23T07:20:23;6.80;;;6.27;;
305;SDS011;137;48.578;9.180;2022-07-23T07:22:50;5.60;;;5.20;;
305;SDS011;137;48.578;9.180;2022-07-23T07:25:18;6.13;;;5.73;;
305;SDS011;137;48.578;9.180;2022-07-23T07:27:45;7.33;;;6.83;;
305;SDS011;137;48.578;9.180;2022-07-23T07:30:12;7.60;;;5.47;;
305;SDS011;137;48.578;9.180;2022-07-23T07:32:39;6.27;;;5.77;;
305;SDS011;137;48.578;9.180;2022-07-23T07:35:06;6.17;;;5.70;;
305;SDS011;137;48.578;9.180;2022-07-23T07:37:34;5.40;;;5.00;;
305;SDS011;137;48.578;9.180;2022-07-23T07:40:02;6.10;;;5.60;;
305;SDS011;137;48.578;9.180;2022-07-23T07:42:30;6.03;;;5.63;;
305;SDS011;137;48.578;9.180;2022-07-23T07:44:57;5.73;;;5.23;;
305;SDS011;137;48.578;9.180;2022-07-23T07:47:24;6.27;;;5.77;;
305;SDS011;137;48.578;9.180;2022-07-23T07:49:51;6.00;;;5.60;;
305;SDS011;137;48.578;9.180;2022-07-23T07:52:18;6.73;;;6.07;;
305;SDS011;137;48.578;9.180;2022-07-23T07:54:45;6.27;;;5.87;;
305;SDS011;137;48.578;9.180;2022-07-23T07:57:12;5.57;;;4.80;;
305;SDS011;137;48.578;9.180;2022-07-23T07:59:40;7.13;;;6.53;;
305;SDS011;137;48.578;9.180;2022-07-23T08:02:07;5.87;;;5.20;;
305;SDS011;137;48.578;9.180;2022-07-23T08:04:35;7.77;;;6.30;;
305;SDS011;137;48.578;9.180;2022-07-23T08:07:01;5.83;;;5.43;;
305;SDS011;137;48.578;9.180;2022-07-23T08:09:29;6.20;;;5.77;;
305;SDS011;137;48.578;9.180;2022-07-23T08:11:56;5.00;;;4.60;;
305;SDS011;137;48.578;9.180;2022-07-23T08:14:23;5.63;;;5.20;;
305;SDS011;137;48.578;9.180;2022-07-23T08:16:52;6.43;;;5.93;;
305;SDS011;137;48.578;9.180;2022-07-23T08:19:20;5.93;;;5.40;;
305;SDS011;137;48.578;9.180;2022-07-23T08:21:47;6.27;;;5.77;;
305;SDS011;137;48.578;9.180;2022-07-23T08:24:14;6.63;;;5.50;;
305;SDS011;137;48.578;9.180;2022-07-23T08:26:41;5.60;;;5.10;;
305;SDS011;137;48.578;9.180;2022-07-23T08:29:12;6.37;;;5.87;;
305;SDS011;137;48.578;9.180;2022-07-23T08:31:39;5.90;;;5.50;;
305;SDS011;137;48.578;9.180;2022-07-23T08:37:04;5.77;;;5.33;;
305;SDS011;137;48.578;9.180;2022-07-23T08:39:30;5.70;;;4.80;;
305;SDS011;137;48.578;9.180;2022-07-23T08:41:57;7.63;;;6.83;;
305;SDS011;137;48.578;9.180;2022-07-23T08:44:24;6.37;;;5.93;;
305;SDS011;137;48.578;9.180;2022-07-23T08:46:51;5.47;;;5.07;;
305;SDS011;137;48.578;9.180;2022-07-23T08:49:18;5.77;;;5.37;;
305;SDS011;137;48.578;9.180;2022-07-23T08:51:46;6.30;;;5.70;;
305;SDS011;137;48.578;9.180;2022-07-23T08:54:14;6.90;;;6.30;;
305;SDS011;137;48.578;9.180;2022-07-23T08:56:41;6.00;;;5.37;;
305;SDS011;137;48.578;9.180;2022-07-23T08:59:08;6.23;;;5.70;;
305;SDS011;137;48.578;9.180;2022-07-23T09:01:38;5.90;;;5.50;;
305;SDS011;137;48.578;9.180;2022-07-23T09:04:05;5.90;;;5.50;;
305;SDS011;137;48.578;9.180;2022-07-23T09:06:33;6.93;;;6.30;;
305;SDS011;137;48.578;9.180;2022-07-23T09:09:10;6.90;;;6.40;;
305;SDS011;137;48.578;9.180;2022-07-23T09:11:45;5.90;;;5.40;;
305;SDS011;137;48.578;9.180;2022-07-23T09:14:12;6.33;;;5.87;;
305;SDS011;137;48.578;9.180;2022-07-23T09:16:39;6.00;;;5.60;;
305;SDS011;137;48.578;9.180;2022-07-23T09:19:06;5.90;;;5.50;;
305;SDS011;137;48.578;9.180;2022-07-23T09:21:33;6.60;;;6.00;;
305;SDS011;137;48.578;9.180;2022-07-23T09:24:03;6.20;;;5.70;;
305;SDS011;137;48.578;9.180;2022-07-23T09:26:32;5.97;;;5.47;;
305;SDS011;137;48.578;9.180;2022-07-23T09:29:05;7.30;;;5.70;;
305;SDS011;137;48.578;9.180;2022-07-23T09:31:38;7.27;;;6.57;;
305;SDS011;137;48.578;9.180;2022-07-23T09:34:10;5.40;;;5.10;;
305;SDS011;137;48.578;9.180;2022-07-23T09:36:39;5.17;;;4.87;;
305;SDS011;137;48.578;9.180;2022-07-23T09:39:09;6.53;;;5.90;;
305;SDS011;137;48.578;9.180;2022-07-23T09:41:39;6.60;;;5.63;;
305;SDS011;137;48.578;9.180;2022-07-23T09:44:08;5.60;;;5.20;;
305;SDS011;137;48.578;9.180;2022-07-23T09:46:36;7.60;;;5.73;;
305;SDS011;137;48.578;9.180;2022-07-23T09:49:16;5.70;;;5.30;;
305;SDS011;137;48.578;9.180;2022-07-23T09:51:47;6.00;;;5.50;;
305;SDS011;137;48.578;9.180;2022-07-23T09:54:25;5.73;;;5.30;;
305;SDS011;137;48.578;9.180;2022-07-23T09:56:55;7.10;;;5.90;;
305;SDS011;137;48.578;9.180;2022-07-23T09:59:27;5.80;;;5.40;;
305;SDS011;137;48.578;9.180;2022-07-23T10:01:56;5.60;;;5.10;;
305;SDS011;137;48.578;9.180;2022-07-23T10:04:24;6.00;;;5.50;;
305;SDS011;137;48.578;9.180;2022-07-23T10:06:53;6.00;;;5.60;;
305;SDS011;137;48.578;9.180;2022-07-23T10:09:23;5.90;;;5.50;;
305;SDS011;137;48.578;9.180;2022-07-23T10:11:54;6.73;;;5.70;;
305;SDS011;137;48.578;9.180;2022-07-23T10:14:25;6.07;;;5.67;;
305;SDS011;137;48.578;9.180;2022-07-23T10:16:52;5.90;;;5.50;;
305;SDS011;137;48.578;9.180;2022-07-23T10:19:19;5.97;;;5.57;;
305;SDS011;137;48.578;9.180;2022-07-23T10:21:47;7.43;;;6.93;;
305;SDS011;137;48.578;9.180;2022-07-23T10:24:20;6.60;;;6.00;;
305;SDS011;137;48.578;9.180;2022-07-23T10:26:58;7.47;;;6.20;;
305;SDS011;137;48.578;9.180;2022-07-23T10:29:36;8.17;;;6.83;;
305;SDS011;137;48.578;9.180;2022-07-23T10:32:16;6.33;;;5.83;;
305;SDS011;137;48.578;9.180;2022-07-23T10:34:52;6.23;;;5.73;;
305;SDS011;137;48.578;9.180;2022-07-23T10:37:32;7.07;;;6.47;;
305;SDS011;137;48.578;9.180;2022-07-23T10:40:12;6.50;;;5.90;;
305;SDS011;137;48.578;9.180;2022-07-23T10:42:42;6.77;;;6.27;;
305;SDS011;137;48.578;9.180;2022-07-23T10:45:22;6.63;;;6.17;;
305;SDS011;137;48.578;9.180;2022-07-23T10:47:50;6.57;;;6.07;;
305;SDS011;137;48.578;9.180;2022-07-23T10:50:18;6.80;;;6.30;;
305;SDS011;137;48.578;9.180;2022-07-23T10:55:53;6.30;;;5.90;;
305;SDS011;137;48.578;9.180;2022-07-23T10:58:20;7.10;;;6.30;;
305;SDS011;137;48.578;9.180;2022-07-23T11:00:49;7.93;;;6.70;;
305;SDS011;137;48.578;9.180;2022-07-23T11:03:30;5.97;;;5.50;;
305;SDS011;137;48.578;9.180;2022-07-23T11:06:03;5.70;;;5.30;;
305;SDS011;137;48.578;9.180;2022-07-23T11:08:31;6.40;;;5.97;;
305;SDS011;137;48.578;9.180;2022-07-23T11:11:09;7.20;;;6.50;;
305;SDS011;137;48.578;9.180;2022-07-23T11:13:41;6.93;;;6.23;;
305;SDS011;137;48.578;9.180;2022-07-23T11:16:22;6.50;;;6.10;;
305;SDS011;137;48.578;9.180;2022-07-23T11:21:43;6.40;;;5.90;;
305;SDS011;137;48.578;9.180;2022-07-23T11:24:12;5.77;;;5.30;;
305;SDS011;137;48.578;9.180;2022-07-23T11:26:44;6.27;;;5.83;;
305;SDS011;137;48.578;9.180;2022-07-23T11:29:44;6.03;;;5.63;;
305;SDS011;137;48.578;9.180;2022-07-23T11:37:52;5.30;;;4.90;;
305;SDS011;137;48.578;9.180;2022-07-23T11:40:23;5.50;;;5.10;;
305;SDS011;137;48.578;9.180;2022-07-23T11:42:54;5.93;;;5.50;;
305;SDS011;137;48.578;9.180;2022-07-23T11:45:22;6.50;;;5.90;;
305;SDS011;137;48.578;9.180;2022-07-23T11:47:50;5.63;;;5.23;;
305;SDS011;137;48.578;9.180;2022-07-23T11:50:17;6.60;;;6.10;;
305;SDS011;137;48.578;9.180;2022-07-23T11:52:44;6.00;;;5.60;;
305;SDS011;137;48.578;9.180;2022-07-23T11:55:11;5.67;;;5.27;;
305;SDS011;137;48.578;9.180;2022-07-23T11:57:41;5.50;;;5.10;;
305;SDS011;137;48.578;9.180;2022-07-23T12:00:11;5.60;;;5.10;;
305;SDS011;137;48.578;9.180;2022-07-23T12:02:39;6.37;;;5.77;;
305;SDS011;137;48.578;9.180;2022-07-23T12:05:10;6.00;;;5.60;;
305;SDS011;137;48.578;9.180;2022-07-23T12:07:39;6.10;;;5.60;;
305;SDS011;137;48.578;9.180;2022-07-23T12:10:11;5.00;;;4.70;;
305;SDS011;137;48.578;9.180;2022-07-23T12:12:40;5.03;;;4.70;;
305;SDS011;137;48.578;9.180;2022-07-23T12:15:10;6.27;;;5.67;;
305;SDS011;137;48.578;9.180;2022-07-23T12:17:40;5.90;;;5.50;;
305;SDS011;137;48.578;9.180;2022-07-23T12:20:09;5.80;;;5.40;;
305;SDS011;137;48.578;9.180;2022-07-23T12:22:40;6.03;;;5.50;;
305;SDS011;137;48.578;9.180;2022-07-23T12:25:09;5.73;;;5.33;;
305;SDS011;137;48.578;9.180;2022-07-23T12:27:37;5.57;;;5.17;;
305;SDS011;137;48.578;9.180;2022-07-23T12:30:22;5.30;;;4.83;;
305;SDS011;137;48.578;9.180;2022-07-23T12:32:51;6.37;;;5.60;;
305;SDS011;137;48.578;9.180;2022-07-23T12:35:20;5.47;;;5.07;;
305;SDS011;137;48.578;9.180;2022-07-23T12:37:49;6.30;;;5.80;;
305;SDS011;137;48.578;9.180;2022-07-23T12:40:24;6.17;;;5.30;;
305;SDS011;137;48.578;9.180;2022-07-23T12:42:54;4.77;;;4.47;;
305;SDS011;137;48.578;9.180;2022-07-23T12:45:23;5.90;;;5.40;;
305;SDS011;137;48.578;9.180;2022-07-23T12:47:54;5.43;;;5.03;;
305;SDS011;137;48.578;9.180;2022-07-23T12:50:35;5.33;;;4.67;;
305;SDS011;137;48.578;9.180;2022-07-23T12:53:05;5.30;;;4.90;;
305;SDS011;137;48.578;9.180;2022-07-23T12:55:34;5.13;;;4.73;;
305;SDS011;137;48.578;9.180;2022-07-23T12:58:04;5.10;;;4.70;;
305;SDS011;137;48.578;9.180;2022-07-23T13:03:20;5.30;;;4.77;;
305;SDS011;137;48.578;9.180;2022-07-23T13:05:51;5.20;;;4.90;;
305;SDS011;137;48.578;9.180;2022-07-23T13:08:18;6.00;;;5.60;;
305;SDS011;137;48.578;9.180;2022-07-23T13:10:45;4.90;;;4.50;;
305;SDS011;137;48.578;9.180;2022-07-23T13:13:14;5.77;;;5.37;;
305;SDS011;137;48.578;9.180;2022-07-23T13:15:41;5.40;;;5.10;;
305;SDS011;137;48.578;9.180;2022-07-23T13:18:10;5.43;;;5.03;;
305;SDS011;137;48.578;9.180;2022-07-23T13:20:37;6.50;;;5.53;;
305;SDS011;137;48.578;9.180;2022-07-23T13:23:04;5.27;;;4.90;;
305;SDS011;137;48.578;9.180;2022-07-23T13:25:32;5.33;;;4.93;;
305;SDS011;137;48.578;9.180;2022-07-23T13:27:59;5.60;;;5.10;;
305;SDS011;137;48.578;9.180;2022-07-23T13:30:26;5.10;;;4.70;;
305;SDS011;137;48.578;9.180;2022-07-23T13:32:53;4.90;;;4.50;;
305;SDS011;137;48.578;9.180;2022-07-23T13:35:21;4.60;;;4.30;;
305;SDS011;137;48.578;9.180;2022-07-23T13:37:49;5.10;;;4.70;;
305;SDS011;137;48.578;9.180;2022-07-23T13:40:16;4.97;;;4.67;;
305;SDS011;137;48.578;9.180;2022-07-23T13:42:42;5.00;;;4.60;;
305;SDS011;137;48.578;9.180;2022-07-23T13:45:09;5.27;;;4.87;;
305;SDS011;137;48.578;9.180;2022-07-23T13:47:36;5.17;;;4.77;;
305;SDS011;137;48.578;9.180;2022-07-23T13:50:04;4.90;;;4.60;;
305;SDS011;137;48.578;9.180;2022-07-23T13:52:33;5.77;;;5.27;;
305;SDS011;137;48.578;9.180;2022-07-23T13:55:00;5.17;;;4.77;;
305;SDS011;137;48.578;9.180;2022-07-23T13:57:27;4.97;;;4.57;;
305;SDS011;137;48.578;9.180;2022-07-23T13:59:54;4.60;;;4.27;;
305;SDS011;137;48.578;9.180;2022-07-23T14:02:21;7.17;;;5.20;;
305;SDS011;137;48.578;9.180;2022-07-23T14:04:47;5.83;;;5.33;;
305;SDS011;137;48.578;9.180;2022-07-23T14:07:14;6.23;;;5.47;;
305;SDS011;137;48.578;9.180;2022-07-23T14:09:43;6.60;;;6.10;;
305;SDS011;137;48.578;9.180;2022-07-23T14:12:10;5.97;;;5.47;;
305;SDS011;137;48.578;9.180;2022-07-23T14:14:37;4.90;;;4.50;;
305;SDS011;137;48.578;9.180;2022-07-23T14:17:04;5.67;;;5.17;;
305;SDS011;137;48.578;9.180;2022-07-23T14:19:30;6.00;;;5.43;;
305;SDS011;137;48.578;9.180;2022-07-23T14:21:57;5.63;;;5.23;;
305;SDS011;137;48.578;9.180;2022-07-23T14:24:24;5.77;;;5.27;;
305;SDS011;137;48.578;9.180;2022-07-23T14:26:52;5.63;;;5.17;;
305;SDS011;137;48.578;9.180;2022-07-23T14:29:19;6.17;;;5.57;;
305;SDS011;137;48.578;9.180;2022-07-23T14:31:46;5.30;;;4.90;;
305;SDS011;137;48.578;9.180;2022-07-23T14:34:13;5.40;;;5.00;;
305;SDS011;137;48.578;9.180;2022-07-23T14:36:40;6.20;;;5.80;;
305;SDS011;137;48.578;9.180;2022-07-23T14:39:06;5.90;;;5.50;;
305;SDS011;137;48.578;9.180;2022-07-23T14:41:34;6.00;;;5.50;;
305;SDS011;137;48.578;9.180;2022-07-23T14:44:02;5.53;;;5.13;;
305;SDS011;137;48.578;9.180;2022-07-23T14:46:29;5.57;;;4.90;;
305;SDS011;137;48.578;9.180;2022-07-23T14:48:56;5.10;;;4.70;;
305;SDS011;137;48.578;9.180;2022-07-23T14:51:23;6.10;;;5.50;;
305;SDS011;137;48.578;9.180;2022-07-23T14:53:50;5.43;;;5.03;;
305;SDS011;137;48.578;9.180;2022-07-23T14:56:17;6.67;;;5.47;;
305;SDS011;137;48.578;9.180;2022-07-23T14:58:44;5.13;;;4.73;;
305;SDS011;137;48.578;9.180;2022-07-23T15:01:12;5.37;;;4.87;;
305;SDS011;137;48.578;9.180;2022-07-23T15:03:39;5.67;;;5.27;;
305;SDS011;137;48.578;9.180;2022-07-23T15:06:06;5.30;;;4.87;;
305;SDS011;137;48.578;9.180;2022-07-23T15:08:33;5.27;;;4.80;;
305;SDS011;137;48.578;9.180;2022-07-23T15:11:00;5.77;;;5.37;;
305;SDS011;137;48.578;9.180;2022-07-23T15:13:27;5.47;;;5.07;;
305;SDS011;137;48.578;9.180;2022-07-23T15:15:54;6.00;;;5.40;;
305;SDS011;137;48.578;9.180;2022-07-23T15:18:22;6.20;;;5.70;;
305;SDS011;137;48.578;9.180;2022-07-23T15:20:49;5.33;;;4.93;;
305;SDS011;137;48.578;9.180;2022-07-23T15:23:16;5.83;;;5.33;;
305;SDS011;137;48.578;9.180;2022-07-23T15:25:43;5.63;;;5.13;;
305;SDS011;137;48.578;9.180;2022-07-23T15:28:10;5.50;;;5.00;;
305;SDS011;137;48.578;9.180;2022-07-23T15:30:36;5.27;;;4.93;;
305;SDS011;137;48.578;9.180;2022-07-23T15:33:04;5.30;;;4.80;;
305;SDS011;137;48.578;9.180;2022-07-23T15:35:33;6.07;;;5.67;;
305;SDS011;137;48.578;9.180;2022-07-23T15:38:00;5.90;;;5.40;;
305;SDS011;137;48.578;9.180;2022-07-23T15:40:26;8.10;;;5.20;;
305;SDS011;137;48.578;9.180;2022-07-23T15:42:54;5.93;;;5.33;;
305;SDS011;137;48.578;9.180;2022-07-23T15:45:21;6.13;;;5.67;;
305;SDS011;137;48.578;9.180;2022-07-23T15:47:48;6.43;;;5.93;;
305;SDS011;137;48.578;9.180;2022-07-23T15:50:14;5.60;;;5.20;;
305;SDS011;137;48.578;9.180;2022-07-23T15:52:43;6.10;;;5.60;;
305;SDS011;137;48.578;9.180;2022-07-23T15:55:10;5.40;;;5.00;;
305;SDS011;137;48.578;9.180;2022-07-23T15:57:36;5.83;;;5.43;;
305;SDS011;137;48.578;9.180;2022-07-23T16:00:04;5.77;;;5.30;;
305;SDS011;137;48.578;9.180;2022-07-23T16:02:33;7.03;;;5.23;;
305;SDS011;137;48.578;9.180;2022-07-23T16:05:00;5.20;;;4.80;;
305;SDS011;137;48.578;9.180;2022-07-23T16:07:27;5.73;;;5.23;;